Skiathos Island, Greece

4:54 PM EEST on August 23, 2014 (GMT +0300)
Skiathos | Change Station
CLOSE
Current Station
Airport
Location: Skiathos Island,
Elevation: 49 ft
Nearby Weather Stations

Elev 49 ft 39.18 °N, 23.50 °E | Updated 1 hour ago

Partly Cloudy
Partly Cloudy
84 °F
Feels Like 91 °F
N
8
Wind Variable Wind from NNE

Today
High -- | Low -- °F
--% Chance of Precip.
Yesterday
High -- | Low -- °F
Precip. -- in
6:46 AM 8:10 PM
Waning Crescent, 4% visible
Pressure 29.92 in
Visibility 6.2 miles
Clouds Few 2000 ft
Heat Index 91 °F
Dew Point 73 °F
Humidity 70%
Rainfall 0.00 in
Snow Depth Not available.
UV 6 out of 12
Pollen Not available.
Air Quality Not available.
Flu Activity Not available.
METAR LGSK 231250Z 02007KT 9999 FEW020 29/23 Q1013

More Conditions Fewer Conditions

Pressure 29.92 in
Visibility 6.2 miles
Clouds Few 2000 ft
Heat Index 91 °F
Dew Point 73 °F
Humidity 70%
Rainfall 0.00 in
Snow Depth Not available.
UV 6 out of 12
Pollen Not available.
Air Quality Not available.
Flu Activity Not available.
METAR LGSK 231250Z 02007KT 9999 FEW020 29/23 Q1013

More Conditions Fewer Conditions

10-Day Weather Forecast

Almanac

Astronomy

Aug. 23, 2014 Rise Set
Actual Time 6:46 AM EEST 8:10 PM EEST
Civil Twilight 6:18 AM EEST 8:38 PM EEST
Nautical Twilight 5:44 AM EEST 9:11 PM EEST
Astronomical Twilight 5:08 AM EEST 9:47 PM EEST
Moon 4:45 AM EEST 6:43 PM EEST
Length of Visible Light 14h 20m
Length of Day
13h 24m
Tomorrow will be 2m 22s shorter.
Waning Crescent, 4% of the Moon is Illuminated
Today
Waning Crescent
Aug 25
New
Sep 2
First Quarter
Sep 8
Full
Sep 15
Last Quarter

Yesterday's Extremes

Country Highs Country Lows

Community

WunderPhotos

Upload Photos

1,746,455 photos uploaded!

WunderBlogs® & News

By Dr. Jeff Masters
Director of Meteorology, Weather Underground
By Kari Strenfel
Meteorologist, Weather Underground
By Christopher C. Burt
Weather Historian, Weather Underground
August 23, 2014
August 23, 2014
August 23, 2014

Nearby

Snow Depth

Not available.

Earthquake Activity

City Distance Mag. Time & Date
No recent earthquake activity has been reported nearby.
Minimum magnitude displayed is 2.5.

Coastal Water Temperatures

Place Temperature
No Stations Reporting

Nearby Weather Stations